Date,TemperatureHighF,TemperatureAvgF,TemperatureLowF,DewpointHighF,DewpointAvgF,DewpointLowF,HumidityHigh,HumidityAvg,HumidityLow,PressureMaxIn,PressureMinIn,WindSpeedMaxMPH,WindSpeedAvgMPH,GustSpeedMaxMPH,PrecipitationSumIn
2013-1-22,18.9,16.9,15.9,1.8,-0.1,-1.9,53,46,40,30.38,30.35,14,5,14,0.00
2013-1-23,23.3,18.6,13.3,11.1,5.9,1.7,64,57,52,30.39,30.12,12,2,12,0.00
2013-1-24,26.3,21.1,15.5,14.2,5.9,-0.2,68,52,33,30.60,30.13,22,5,22,0.00
2013-1-25,26.4,22.7,19.7,21.9,15.3,7.1,88,74,55,30.45,30.07,14,3,15,0.00
2013-1-26,36.2,26.8,21.0,23.4,19.6,17.0,92,75,52,30.45,30.16,13,3,13,0.01
2013-1-27,38.0,29.8,21.2,36.7,23.8,17.1,95,79,63,30.45,30.18,13,3,14,0.25
2013-1-28,53.6,48.2,37.9,52.2,46.0,36.6,98,92,78,30.18,30.03,24,8,24,0.18
2013-1-29,63.8,59.4,53.3,58.9,54.8,51.2,95,85,77,30.04,29.56,27,8,28,0.00
2013-1-30,66.4,26.4,32.5,59.1,-24.7,-99.9,90,42,71,29.57,29.25,32,-476,32,0.11
2013-1-31,32.3,27.0,17.6,24.3,19.2,12.2,91,73,56,30.05,29.54,28,9,28,0.11
2013-2-1,18.0,13.3,7.5,12.6,4.9,0.4,81,69,59,30.45,30.05,25,6,26,0.00
2013-2-2,31.1,23.9,14.5,27.4,19.8,7.8,92,84,72,30.37,30.02,16,4,16,0.04
2013-2-3,28.4,22.8,18.5,24.5,18.4,14.4,90,83,76,30.15,29.95,17,4,17,0.00
2013-2-4,36.0,28.2,20.0,35.0,24.8,17.1,97,87,68,30.14,29.84,17,3,17,0.06
2013-2-5,38.9,35.1,28.9,35.4,31.6,26.3,97,87,80,30.01,29.84,11,3,11,0.06
2013-2-6,38.2,34.8,31.0,32.7,29.1,26.9,85,80,71,30.25,30.01,18,3,18,0.00
2013-2-7,61.9,45.1,31.6,38.4,33.2,27.3,87,66,37,30.20,29.80,17,3,20,0.00
2013-2-8,52.7,37.8,31.6,46.1,32.2,23.7,94,80,58,30.32,29.78,27,7,27,0.07
2013-2-9,43.1,33.5,24.8,24.4,20.6,17.4,80,60,38,30.43,30.22,11,3,11,0.00
2013-2-10,56.4,43.4,33.3,46.8,31.3,20.6,91,64,39,30.23,29.79,24,6,24,0.03
2013-2-11,53.3,47.6,39.0,50.7,36.4,27.8,95,66,48,30.04,29.76,28,9,28,0.00
2013-2-12,50.6,40.6,31.2,29.7,26.4,22.9,80,59,36,30.13,29.89,15,3,15,0.00
2013-2-13,38.0,33.3,31.1,32.2,29.2,26.1,95,85,62,29.90,29.75,11,3,11,0.07
2013-2-14,52.9,40.7,31.8,38.6,33.7,29.2,95,78,51,29.99,29.83,24,6,24,0.01
2013-2-15,40.6,35.0,27.1,31.3,27.8,21.5,83,75,56,30.15,29.98,19,4,20,0.00
2013-2-16,29.0,24.7,20.2,22.0,16.5,10.3,90,71,48,30.15,30.05,20,4,20,0.00
2013-2-17,33.6,24.6,15.6,15.4,10.3,4.5,88,57,31,30.27,30.13,12,2,13,0.00
2013-2-18,58.7,39.1,24.4,37.8,16.8,-99.9,64,47,41,30.23,29.77,25,-52,26,0.01
2013-2-19,53.2,42.4,24.2,34.5,25.0,-99.9,69,54,49,30.12,29.77,11,-15,26,0.00
2013-2-20,31.0,24.4,19.8,16.0,13.7,11.4,77,64,49,30.31,30.12,17,5,17,0.00
2013-2-21,33.2,26.3,19.2,27.1,19.2,13.8,90,75,59,30.36,30.05,20,4,20,0.04
2013-2-22,44.2,36.6,29.5,39.4,34.1,27.1,98,91,81,30.08,29.89,19,3,19,0.07
2013-2-23,46.7,37.3,32.2,34.5,28.4,25.0,94,72,45,29.99,29.90,11,3,12,0.01
2013-2-24,44.2,34.2,25.7,27.6,24.5,21.4,86,69,47,30.15,29.93,12,3,13,0.00
2013-2-25,47.2,36.3,26.3,27.5,23.9,21.6,83,62,45,30.17,29.89,16,4,16,0.00
2013-2-26,50.2,42.2,36.4,49.3,37.4,23.7,97,84,55,29.89,29.34,23,6,23,0.58
2013-2-27,41.2,36.9,33.3,39.1,33.9,29.9,94,89,78,29.73,29.51,19,6,20,0.03
2013-2-28,36.4,34.2,31.9,33.6,31.6,29.0,95,90,85,29.95,29.70,18,6,18,0.02
2013-3-1,35.7,33.6,30.2,34.5,31.8,24.5,97,93,79,30.03,29.93,14,3,15,0.06
2013-3-2,30.3,28.2,26.6,25.0,22.6,20.8,84,79,73,30.09,30.02,13,4,13,0.01
2013-3-3,31.9,28.5,25.4,24.3,20.6,17.6,91,72,61,30.10,30.05,14,4,15,0.00
2013-3-4,43.4,33.4,23.1,26.8,21.9,18.2,82,64,44,30.18,29.99,13,2,13,0.00
2013-3-5,39.8,36.7,32.2,37.6,31.4,24.6,97,82,57,30.01,29.56,19,5,22,0.28
2013-3-6,32.5,32.4,32.3,31.7,31.5,31.4,97,97,96,29.63,29.62,8,8,22,0.00
2013-3-7,32.5,32.4,32.3,31.7,31.5,31.4,97,97,96,29.63,29.62,8,8,22,0.00
2013-3-8,32.5,32.4,32.3,31.7,31.5,31.4,97,97,96,29.63,29.62,8,8,22,0.00
2013-3-9,32.5,32.4,32.3,31.7,31.5,31.4,97,97,96,29.63,29.62,8,8,22,0.00
2013-3-10,32.5,32.4,32.3,31.7,31.5,31.4,97,97,96,29.63,29.62,8,8,22,0.00
2013-3-11,42.7,33.3,32.3,37.9,31.9,31.4,97,95,80,29.84,29.62,15,7,22,1.13
2013-3-12,45.4,38.2,34.1,32.7,29.1,25.7,90,70,51,30.06,29.84,21,6,22,1.13
2013-3-13,34.1,30.1,26.9,31.7,24.1,19.0,93,79,60,30.33,30.01,26,7,27,0.00
2013-3-14,45.1,33.5,23.0,26.8,19.8,14.0,86,61,31,30.37,30.18,14,3,14,0.00
2013-3-15,53.4,42.1,32.1,39.4,33.8,27.1,89,73,56,30.18,29.77,15,3,15,0.00
2013-3-16,63.0,49.5,38.8,52.3,43.3,34.1,93,80,62,29.99,29.60,24,6,26,0.20
2013-3-17,38.9,35.2,33.3,34.2,31.7,28.5,95,87,79,30.13,29.97,16,4,16,0.17
2013-3-18,49.6,41.1,34.1,48.6,39.4,32.8,99,94,76,29.98,29.62,21,6,21,0.66
2013-3-19,44.6,37.5,28.8,34.8,22.3,12.2,90,58,29,30.11,29.83,29,8,31,0.00
2013-3-20,37.1,32.3,24.4,21.5,17.0,11.4,69,53,38,30.11,29.95,25,6,25,0.00
2013-3-21,33.4,26.7,20.6,16.4,12.3,8.2,74,55,38,30.06,29.95,16,4,16,0.00
2013-3-22,46.0,34.2,23.2,21.2,16.2,13.5,70,49,30,30.10,29.99,10,2,10,0.00
2013-3-23,55.0,42.8,34.7,26.2,22.6,19.3,62,46,28,30.06,29.86,11,2,12,0.00
2013-3-24,41.2,35.4,32.8,33.4,29.4,23.0,97,80,48,29.86,29.39,20,4,22,0.19
2013-3-25,34.1,32.2,29.3,33.1,31.0,28.2,97,95,92,29.96,29.42,22,6,22,0.14
2013-3-26,40.9,34.6,31.7,33.0,29.6,25.1,94,83,63,30.25,29.96,18,6,20,0.01
2013-3-27,43.4,36.9,29.5,31.5,26.6,23.3,86,67,46,30.32,30.24,18,4,18,0.00
2013-3-28,51.7,41.2,29.8,30.0,25.4,21.7,73,54,38,30.36,30.28,12,2,13,0.00
2013-3-29,57.2,45.4,33.2,34.9,29.3,26.5,83,55,32,30.32,30.19,12,2,12,0.00
2013-3-30,60.6,49.7,38.3,37.8,32.6,29.7,74,53,33,30.22,29.92,14,2,14,0.00
2013-3-31,57.4,50.6,46.3,47.6,43.4,37.8,96,78,55,29.93,29.76,19,3,19,0.06
2013-4-1,50.4,43.1,37.3,41.6,27.8,18.3,79,57,34,30.11,29.77,17,6,18,0.00
2013-4-2,47.4,38.0,28.5,22.4,17.7,12.7,69,46,27,30.26,30.11,19,4,19,0.00
2013-4-3,50.4,40.3,29.4,20.5,16.7,12.2,60,39,23,30.41,30.25,20,3,20,0.00
2013-4-4,55.9,44.2,34.3,27.0,20.1,15.5,51,39,23,30.33,29.98,15,2,15,0.00
2013-4-5,64.8,50.9,38.9,37.8,28.6,25.1,61,44,24,30.11,29.97,16,4,18,0.00
2013-4-6,68.5,54.1,39.2,38.5,30.6,22.3,57,42,28,30.18,29.89,16,4,16,0.00
2013-4-7,67.5,60.4,58.7,45.8,39.7,36.4,50,46,41,29.91,29.84,19,8,22,0.00
2013-4-14,71.3,56.2,40.6,45.1,40.1,35.3,83,58,33,30.03,29.84,7,3,14,0.00
2013-4-15,68.1,62.1,56.2,55.0,51.4,44.9,79,68,51,29.96,29.86,7,4,14,0.00
2013-4-16,81.0,65.9,58.4,65.8,59.2,53.5,97,80,58,30.12,29.91,17,5,26,0.05
2013-4-17,78.7,65.4,57.2,65.6,60.9,56.9,99,87,62,30.14,29.91,7,4,14,0.08
2013-4-18,81.6,72.8,63.0,63.7,58.9,52.4,87,64,43,29.92,29.56,15,9,29,0.00
2013-4-19,74.2,48.7,38.9,61.4,40.5,30.4,95,74,51,29.98,29.38,13,8,30,1.98
2013-4-20,52.2,43.0,36.2,34.0,30.2,25.9,88,63,38,30.38,29.98,17,4,19,0.00
2013-4-21,59.1,46.8,34.2,35.2,28.9,25.5,71,51,32,30.51,30.34,12,3,12,0.00
2013-4-22,70.6,56.1,38.5,43.6,35.8,28.5,69,48,31,30.35,30.10,12,2,12,0.00
2013-4-23,69.7,61.7,50.5,53.3,47.1,39.7,68,59,52,30.11,29.83,18,4,18,0.00
2013-4-24,65.2,51.3,39.8,56.5,44.3,35.3,96,78,58,30.20,29.74,23,6,24,0.60
2013-4-25,59.4,47.1,35.4,39.5,34.9,31.0,94,66,39,30.36,30.20,19,4,21,0.00
2013-4-26,63.0,52.0,39.1,37.2,31.4,26.3,71,48,29,30.44,30.31,9,2,9,0.00
2013-4-27,61.0,55.2,44.7,51.7,41.9,30.8,84,62,41,30.32,30.01,14,2,14,0.00
2013-4-28,68.8,58.9,54.3,61.0,55.5,51.6,98,89,68,30.01,29.79,17,3,17,0.27
2013-4-29,65.1,58.7,55.2,56.8,54.6,52.7,98,87,68,29.97,29.85,10,2,10,0.01
2013-4-30,78.7,65.2,50.5,59.8,53.5,49.3,98,70,39,30.01,29.93,11,2,12,0.01
2013-5-1,84.0,72.9,58.6,61.3,55.5,53.2,85,57,37,30.12,30.00,13,2,15,0.00
2013-5-2,74.4,68.3,60.3,56.5,53.7,50.9,72,60,52,30.15,30.03,13,3,13,0.00
2013-5-3,76.0,67.8,59.8,58.5,53.1,41.1,82,61,39,30.04,29.90,24,4,24,0.00
2013-5-4,73.1,63.4,56.5,54.5,46.2,40.5,84,55,39,29.95,29.87,19,5,19,0.02
2013-5-5,56.4,53.7,49.8,53.3,50.9,48.3,96,90,81,29.95,29.88,19,2,19,0.70
2013-6-4,69.4,66.9,64.6,48.1,46.9,45.1,55,49,42,30.03,30.01,3,0,3,0.00
2013-6-5,83.0,70.1,58.0,64.1,56.5,47.1,84,63,47,30.03,29.80,14,2,14,0.00
2013-6-6,74.8,68.5,64.6,68.9,64.8,61.9,98,88,70,29.82,29.72,10,2,10,0.55
2013-6-7,79.5,68.7,59.7,62.9,59.6,57.5,95,75,51,29.83,29.74,13,3,13,0.00
2013-6-8,78.4,68.8,58.8,65.8,59.7,55.3,89,74,57,29.98,29.82,13,2,13,0.02
2013-6-9,80.4,70.8,63.5,69.0,63.7,60.4,91,79,54,30.01,29.91,16,2,16,0.17
2013-6-10,79.0,69.0,63.4,68.0,63.9,60.9,98,85,58,29.91,29.80,19,3,19,0.36
2013-6-11,86.6,74.1,62.7,66.9,63.8,60.9,95,73,46,29.99,29.88,13,3,13,0.00
2013-6-12,90.7,80.4,71.3,76.1,70.7,66.1,88,73,55,29.94,29.75,14,2,14,0.00
2013-6-13,81.5,75.2,66.7,73.0,64.8,53.6,97,71,49,29.94,29.61,30,5,30,0.81
2013-6-14,82.2,70.6,57.8,61.9,56.7,53.0,87,63,43,30.07,29.93,14,2,14,0.00
2013-6-15,83.3,73.5,61.4,62.9,59.6,56.2,85,63,46,30.14,29.97,13,2,13,0.00
2013-6-16,77.0,72.3,67.9,68.7,65.4,61.6,94,79,65,30.06,29.97,11,2,11,0.04
2013-6-17,87.5,75.8,65.2,70.5,66.5,63.5,97,75,48,30.01,29.89,21,1,21,0.00
2013-6-18,86.0,71.9,65.2,69.3,64.0,61.6,92,78,52,30.00,29.86,11,1,11,0.06
2013-6-19,82.7,71.5,59.7,62.8,56.7,52.6,92,62,38,30.14,30.00,12,2,12,0.00
2013-6-20,86.0,74.6,62.7,63.2,58.1,55.2,78,58,36,30.22,30.14,8,2,9,0.00
2013-6-21,86.8,77.4,65.6,66.7,62.8,57.5,82,62,46,30.23,30.13,13,2,13,0.00
2013-6-22,89.3,76.9,69.8,72.1,67.9,65.0,89,75,51,30.20,30.08,14,2,14,0.00
2013-6-23,88.1,76.1,67.5,71.3,66.8,63.3,92,74,49,30.17,30.07,18,2,18,0.00
2013-6-24,86.0,76.7,68.1,72.8,68.7,65.0,91,77,59,30.16,30.05,14,2,14,0.00
2013-6-25,91.0,79.5,68.2,75.8,71.0,66.8,97,77,54,30.08,29.91,16,2,16,0.00
2013-6-26,85.8,72.6,66.6,73.9,68.6,65.4,99,88,66,29.96,29.79,20,2,20,1.33
2013-6-27,86.1,74.8,66.2,73.8,69.1,65.7,100,84,60,29.82,29.72,14,3,14,0.00
2013-6-28,85.7,75.8,66.3,71.5,65.2,59.0,89,72,41,29.73,29.60,29,4,29,0.02
2013-6-29,76.6,69.0,63.7,70.5,64.9,61.6,97,87,71,29.68,29.60,14,1,14,0.61
2013-6-30,82.0,70.5,63.5,68.9,64.4,60.6,97,82,50,29.84,29.66,12,2,12,0.10
2013-7-1,81.8,68.9,64.2,69.6,65.1,61.5,97,88,61,29.93,29.82,20,2,20,0.96
2013-7-2,80.2,70.9,63.9,68.9,65.5,62.5,98,84,61,30.04,29.92,12,2,12,0.02
2013-7-3,79.7,73.4,67.5,69.4,67.1,64.8,93,81,64,30.13,30.03,14,2,14,0.15
2013-7-4,70.7,68.5,67.2,69.3,67.3,65.2,98,96,91,30.17,30.09,9,1,9,1.33
2013-7-5,76.5,69.6,65.0,71.1,67.7,64.4,99,94,81,30.17,30.10,9,1,9,0.09
2013-7-6,75.7,69.8,66.4,72.2,68.2,65.2,99,95,86,30.15,30.07,11,2,11,1.93
2013-7-7,84.3,72.7,64.8,69.3,66.5,64.2,99,83,57,30.15,30.06,10,1,10,0.00
2013-7-8,87.3,78.3,68.8,73.1,69.4,65.9,91,75,55,30.15,30.05,11,2,11,0.00
2013-7-9,88.5,80.6,74.5,79.0,72.4,70.1,94,77,62,30.09,29.99,16,2,16,0.48
2013-7-10,89.5,78.8,71.1,78.1,73.3,69.6,95,84,67,30.01,29.83,19,2,19,0.11
2013-7-11,85.2,74.7,69.0,69.6,65.4,56.2,98,75,51,30.02,29.93,16,2,16,0.00
2013-7-12,82.3,72.0,60.6,62.1,57.7,53.8,88,63,40,30.11,30.02,17,2,17,0.00
2013-7-13,84.0,75.0,66.2,69.0,63.5,59.1,80,68,51,30.14,30.06,9,3,15,0.01
2013-7-14,90.2,79.2,69.8,74.9,70.0,65.8,91,74,56,30.22,30.13,15,2,15,0.06
2013-7-15,92.1,81.9,71.8,73.1,70.3,67.1,93,70,47,30.31,30.22,10,1,10,0.00
2013-7-16,93.5,83.2,73.8,75.4,71.4,69.4,88,69,48,30.34,30.25,12,0,12,0.16
2013-7-17,93.5,84.5,75.6,77.6,74.0,71.4,92,72,54,30.32,30.19,11,1,11,0.01
2013-7-18,95.1,85.8,75.7,74.8,72.4,69.4,87,66,46,30.21,30.03,7,1,11,0.00
2013-7-19,89.8,82.0,76.3,76.2,73.7,68.0,90,77,60,30.05,29.90,14,2,14,0.03
2013-7-20,89.2,78.5,73.4,74.9,70.9,67.0,88,78,57,29.94,29.85,22,2,22,0.01
2013-7-21,88.4,78.2,70.2,74.5,69.8,66.7,93,76,55,29.98,29.88,9,1,9,0.00
2013-7-22,79.5,72.9,68.4,73.4,70.0,66.4,98,91,74,29.92,29.78,14,1,14,0.53
2013-7-23,86.8,77.2,68.6,74.9,71.4,67.1,99,83,65,29.85,29.74,17,2,17,0.01
2013-7-24,81.0,69.4,58.8,67.0,59.8,55.6,90,73,50,30.01,29.83,16,4,16,0.00
2013-7-25,80.2,69.6,58.1,60.3,55.6,51.4,86,63,39,30.10,30.01,7,2,10,0.00
2013-7-26,80.8,71.3,60.5,62.0,58.6,55.3,90,66,48,30.11,29.99,12,1,12,0.00
2013-7-27,75.2,68.8,63.5,67.0,62.4,55.1,96,81,57,29.99,29.86,16,2,16,0.22
2013-7-28,74.4,65.2,54.0,55.5,51.6,48.9,89,63,43,30.09,29.93,13,2,13,0.00
2013-7-29,79.5,69.2,57.9,59.8,55.2,51.3,83,62,44,30.20,30.09,14,2,14,0.00
2013-7-30,80.3,70.5,60.1,64.5,59.8,56.3,92,70,51,30.25,30.13,7,1,7,0.00
2013-7-31,76.1,69.7,63.9,68.6,65.1,62.2,97,86,76,30.13,29.97,15,2,15,0.08
2013-8-1,83.3,74.0,67.7,67.6,63.0,54.6,96,71,44,30.02,29.94,13,3,13,0.00
2013-8-2,83.3,73.0,61.6,65.6,60.7,56.6,88,67,47,30.04,29.97,13,2,13,0.00
2013-8-3,82.2,73.9,66.8,71.5,66.1,61.8,96,77,63,30.05,29.97,12,2,12,0.29
2013-8-4,81.0,70.7,59.8,62.5,56.6,51.8,81,63,40,30.15,30.05,14,3,14,0.00
2013-8-5,81.3,70.5,58.9,59.2,56.4,53.6,87,63,39,30.14,29.99,12,1,12,0.00
2013-8-6,81.3,73.0,66.2,69.6,63.3,57.8,88,72,62,30.00,29.93,12,2,12,0.00
2013-8-7,84.9,76.8,70.0,73.6,71.4,68.5,98,84,67,29.96,29.88,12,1,12,0.00
2013-8-8,85.5,76.2,69.4,74.7,71.5,67.4,97,86,65,29.97,29.89,21,2,22,0.85
2013-8-9,84.8,75.0,68.0,74.2,70.3,67.1,99,87,65,30.04,29.91,12,2,12,0.35
2013-8-10,84.5,76.4,70.1,70.9,69.2,66.2,97,80,58,30.12,30.03,8,1,8,0.00
2013-8-11,88.5,79.0,72.0,73.7,68.5,63.8,92,72,49,30.10,30.03,12,1,12,0.00
2013-8-12,84.3,75.7,67.0,71.9,67.6,63.7,93,77,57,30.09,29.89,11,1,11,0.00
2013-8-13,81.7,72.7,61.6,72.0,63.6,50.5,95,75,52,30.06,29.86,17,4,17,0.00
2013-8-14,73.8,63.7,53.5,52.6,49.9,47.3,86,63,41,30.19,30.07,12,2,12,0.00
2013-8-15,75.5,64.2,52.8,56.2,52.6,49.3,91,67,46,30.20,30.10,12,1,12,0.00
2013-8-16,80.0,68.6,56.8,58.0,54.8,51.8,88,64,40,30.18,30.12,13,2,13,0.00
2013-8-17,83.8,71.4,60.4,63.0,58.2,54.8,83,65,41,30.20,30.12,13,2,13,0.00
2013-8-18,84.2,72.2,61.4,65.5,62.2,58.1,95,73,43,30.20,30.10,10,1,10,0.00
2013-8-19,88.7,75.5,63.3,68.5,62.7,56.8,97,69,36,30.15,30.07,9,1,9,0.00
2013-8-20,84.8,75.8,65.1,68.2,64.5,61.0,95,70,48,30.18,30.09,12,2,12,0.00
2013-8-21,86.1,76.1,68.6,72.4,67.7,64.4,93,76,50,30.17,30.07,7,2,10,0.01
2013-8-22,88.9,75.9,68.9,73.5,68.8,63.4,95,80,46,30.13,30.04,20,2,20,0.03
2013-8-23,85.8,74.8,67.0,70.6,67.1,63.6,97,79,53,30.15,30.05,10,2,10,0.01
2013-8-24,86.7,75.3,63.4,67.4,60.9,55.7,82,63,39,30.27,30.15,12,2,12,0.00
2013-8-25,71.5,14.3,67.2,60.9,-66.9,-99.9,75,15,69,30.29,30.26,6,-792,6,0.00
2013-8-26,-200.0,0.0,200.0,-99.9,-99.9,-99.9,0,0,100,0.00,40.00,0,-999,0,0.00
2013-8-27,-200.0,0.0,200.0,-99.9,-99.9,-99.9,0,0,100,0.00,40.00,0,-999,0,0.00
2013-8-28,-200.0,0.0,200.0,-99.9,-99.9,-99.9,0,0,100,0.00,40.00,0,-999,0,0.00
2013-8-29,-200.0,0.0,200.0,-99.9,-99.9,-99.9,0,0,100,0.00,40.00,0,-999,0,0.00
2013-8-30,88.1,18.2,78.6,68.7,-63.4,-99.9,70,13,51,29.89,29.85,6,-778,6,0.00
2013-8-31,91.5,77.7,68.6,75.8,70.6,65.6,96,80,57,29.92,29.74,23,2,23,1.31
2013-9-1,85.5,75.1,66.9,72.4,69.2,65.8,97,83,61,29.86,29.78,11,2,11,0.02
2013-9-2,87.3,77.5,70.3,73.2,68.6,59.3,97,76,50,29.89,29.80,16,3,16,0.00
2013-9-3,76.6,68.5,59.1,59.6,57.2,54.0,90,69,48,30.05,29.89,12,3,12,0.00
2013-9-4,82.4,70.0,56.8,62.4,58.4,54.6,95,69,45,30.18,30.08,3,1,8,0.00
2013-9-5,87.0,75.2,63.1,65.4,60.3,54.4,84,62,38,30.20,30.14,4,2,8,0.00
2013-9-6,83.2,70.3,57.7,55.9,51.9,48.2,76,54,33,30.25,30.12,4,2,9,0.00
2013-9-7,85.7,73.8,60.6,67.2,60.5,53.1,78,64,50,30.12,29.98,6,1,10,0.00
2013-9-8,90.5,79.7,69.0,69.7,66.8,63.7,88,67,43,30.00,29.93,8,1,8,0.00
2013-9-9,90.8,79.8,68.5,72.6,68.9,66.7,94,71,49,30.05,29.97,15,2,15,0.00
2013-9-10,93.0,81.6,73.9,75.3,71.7,68.6,88,73,54,30.15,30.03,12,2,12,0.00
2013-9-11,76.5,73.6,72.1,69.1,68.8,68.3,89,85,77,30.16,30.12,8,1,8,0.00
2013-9-12,78.6,74.2,66.9,72.0,69.2,62.6,95,85,71,30.04,29.89,6,2,25,0.20
2013-9-13,66.9,61.1,54.8,62.6,49.8,44.4,87,68,48,30.12,29.92,7,4,18,0.00
2013-9-14,71.2,59.4,47.7,47.1,44.5,42.0,87,61,36,30.22,30.11,3,2,11,0.00
2013-9-15,77.2,64.1,50.3,58.5,51.7,44.9,86,66,46,30.17,30.06,4,2,19,0.00
2013-9-16,71.9,64.2,58.2,62.2,56.7,52.0,91,77,57,30.30,30.08,6,2,12,0.05
2013-9-17,74.6,63.3,51.4,56.1,52.4,48.9,92,69,46,30.35,30.19,8,2,14,0.00
2013-9-18,79.5,67.2,59.5,66.0,60.3,52.7,94,79,60,30.19,30.09,10,2,10,0.00
2013-9-19,77.3,69.9,65.3,69.6,66.3,63.8,97,89,74,30.12,30.00,11,2,11,0.37
2013-9-20,84.9,73.4,67.7,70.0,68.0,65.6,97,85,59,30.02,29.81,17,3,17,1.32
2013-9-21,72.8,65.3,58.0,67.0,57.8,49.8,98,79,47,29.90,29.71,14,3,14,0.81
2013-9-22,69.5,59.6,49.7,50.7,47.4,44.0,90,66,44,30.04,29.90,13,2,13,0.00
2013-9-23,70.8,59.0,47.8,51.2,47.2,43.9,88,67,45,30.15,30.04,11,2,11,0.00
2013-9-24,75.0,61.0,48.1,58.3,51.9,45.0,89,73,53,30.11,29.95,9,2,9,0.00
2013-9-25,76.3,64.3,56.4,59.2,54.4,51.7,89,72,48,29.95,29.90,12,1,12,0.00
2013-9-26,77.9,64.8,51.1,59.3,55.0,49.3,96,73,49,30.08,29.94,11,1,11,0.00
2013-9-27,82.3,68.0,54.5,61.2,53.4,48.4,92,63,32,30.19,30.08,8,1,8,0.00
2013-9-28,81.6,68.3,54.7,59.6,55.1,50.6,90,65,42,30.21,30.08,11,1,13,0.00
2013-9-29,69.2,63.7,61.2,60.3,58.4,56.8,92,83,70,30.08,30.03,12,2,12,0.03
2013-9-30,73.7,65.6,60.3,62.8,60.3,58.5,94,84,68,30.07,29.98,11,1,11,0.01
2013-10-1,78.3,68.7,61.1,65.0,61.3,58.8,94,78,60,30.12,30.03,12,2,12,0.00
2013-10-2,78.1,69.3,62.7,69.1,65.0,60.4,96,86,72,30.14,30.06,7,1,7,0.00
2013-10-3,79.7,71.8,67.7,69.7,67.2,64.5,98,86,61,30.11,30.02,11,1,11,0.08
2013-10-4,83.8,73.6,65.4,69.8,66.0,63.6,94,78,58,30.11,30.03,13,2,13,0.00
2013-10-5,78.5,71.1,66.9,70.0,67.6,65.6,97,89,74,30.08,29.96,12,2,12,1.59
2013-10-6,71.5,63.0,53.1,68.0,61.7,50.9,99,96,87,29.98,29.74,22,3,22,1.93
2013-10-7,61.1,53.1,45.8,52.7,45.5,43.0,97,76,54,30.20,29.86,15,2,15,0.00
2013-10-8,68.5,55.9,44.2,50.2,46.0,42.9,97,72,44,30.33,30.20,13,1,13,0.00
2013-10-9,73.4,59.9,46.9,53.8,46.8,44.2,92,65,38,30.27,30.19,6,1,9,0.00
2013-10-10,75.5,61.6,46.7,50.1,45.6,40.9,95,60,32,30.23,30.10,7,0,7,0.00
2013-10-11,80.1,66.2,51.8,54.7,50.4,45.1,88,59,33,30.14,30.05,6,0,6,0.00
2013-10-12,81.4,66.7,54.6,61.0,55.6,51.6,93,70,42,30.14,30.05,7,1,7,0.00
2013-10-13,74.3,63.9,56.6,62.3,56.3,43.7,97,78,57,30.32,30.14,11,2,11,0.00
2013-10-14,73.8,60.3,47.7,54.6,47.1,42.6,84,63,40,30.36,30.20,10,2,10,0.00
2013-10-15,72.9,64.0,56.4,63.6,59.2,54.4,98,85,70,30.22,29.98,13,2,13,0.00
2013-10-16,65.8,61.4,51.8,61.7,57.2,46.7,98,86,75,29.99,29.92,12,2,12,0.15
2013-10-17,56.4,49.4,44.8,51.9,45.6,43.0,95,87,75,30.04,29.92,14,1,14,0.08
2013-10-18,65.0,53.5,44.6,51.0,44.9,42.7,93,75,47,30.10,29.99,12,2,12,0.01
2013-10-19,53.9,46.9,41.7,46.0,42.8,38.0,94,86,71,30.05,29.87,16,2,16,0.17
2013-10-20,61.0,49.0,38.9,44.8,39.7,36.1,90,72,51,30.10,30.04,18,4,18,0.00
2013-10-21,65.5,54.5,44.5,48.2,41.8,37.8,86,63,43,30.07,29.95,16,3,16,0.00
2013-10-22,54.7,45.8,35.0,47.3,33.6,27.5,91,64,38,30.09,29.89,17,2,17,0.12
2013-10-23,45.5,41.7,36.4,40.3,35.5,30.0,93,79,57,30.10,29.77,18,3,18,0.08
2013-10-24,42.3,26.2,36.1,34.9,-7.4,-99.9,93,58,69,30.34,30.10,17,-304,17,0.03
2013-10-25,51.4,38.9,29.5,33.5,28.6,25.2,90,69,41,30.52,30.34,10,2,10,0.03
2013-10-26,52.1,42.3,32.0,39.1,31.3,25.6,77,65,53,30.35,30.01,20,4,20,0.00
2013-10-27,56.4,44.1,37.6,38.9,36.0,33.6,87,74,46,30.16,30.09,7,0,7,0.00
2013-10-29,55.2,48.3,38.9,48.6,40.8,35.2,87,75,60,30.39,30.26,3,1,9,0.00
2013-10-30,63.5,57.2,52.0,62.0,55.9,48.2,98,95,82,30.28,30.07,3,1,8,0.29
2013-10-31,64.8,62.8,59.1,62.5,58.5,55.6,97,86,76,30.07,29.42,11,6,30,1.15
2013-11-1,64.0,56.7,48.9,62.5,48.4,43.8,95,76,54,29.77,29.40,10,4,30,0.24
2013-11-2,56.4,50.0,43.9,44.8,39.9,35.6,87,69,51,30.11,29.77,7,4,17,0.00
2013-11-3,55.9,45.4,39.6,40.8,37.1,34.7,93,74,55,30.37,30.09,4,1,10,0.00
2013-11-4,53.9,42.8,38.7,40.8,35.6,33.2,84,76,61,30.41,30.33,12,3,12,0.00
2013-11-5,60.7,53.8,49.1,43.7,41.9,36.8,77,65,50,30.41,30.22,8,2,13,0.00
2013-11-6,65.4,56.3,44.5,58.5,48.9,36.5,96,77,54,30.22,29.98,25,4,25,0.30
2013-11-7,50.6,43.1,38.3,42.2,32.6,25.3,94,69,42,30.27,30.03,16,4,16,0.03
2013-11-8,52.2,40.9,30.3,33.5,29.5,27.1,91,66,42,30.40,30.23,19,2,19,0.00
2013-11-9,60.1,49.2,38.1,37.8,31.7,26.0,66,52,36,30.26,30.05,16,4,18,0.00
2013-11-10,51.6,45.5,38.2,40.4,32.1,24.7,80,61,39,30.35,30.12,21,4,21,0.00
2013-11-11,58.9,45.6,34.5,42.5,31.6,24.8,92,62,29,30.32,30.10,20,3,20,0.04
2013-11-12,37.3,30.9,25.8,34.8,23.5,18.4,94,75,53,30.65,30.25,20,5,20,0.04
2013-11-13,40.7,31.2,22.6,24.3,19.8,15.4,89,65,39,30.67,30.43,15,2,15,0.01
2013-11-14,52.3,40.6,30.0,23.5,20.2,17.0,66,46,26,30.43,30.18,19,5,19,0.00
2013-11-15,52.1,45.6,39.3,43.0,29.4,20.0,90,55,39,30.20,30.11,17,4,17,0.04
2013-11-16,60.2,52.2,45.9,55.2,49.2,42.4,96,90,83,30.15,29.92,20,4,21,0.00
2013-11-17,63.7,59.2,52.2,62.3,55.4,40.9,97,88,62,29.93,29.51,46,8,46,1.27
2013-11-18,52.2,46.8,37.9,41.5,34.2,26.5,81,62,41,30.20,29.80,24,6,24,0.00
2013-11-19,42.9,36.0,30.9,29.9,27.7,26.2,85,72,57,30.36,30.20,15,3,15,0.00
2013-11-20,50.0,39.2,29.3,33.0,28.9,24.4,82,67,50,30.34,30.24,14,3,14,0.00
2013-11-21,54.1,48.0,42.0,49.0,38.4,30.8,93,70,59,30.34,30.21,11,2,11,0.05
2013-11-22,54.1,48.5,37.7,52.5,45.4,30.0,97,89,73,30.37,30.17,14,4,17,0.07
2013-11-23,38.2,31.3,22.9,30.5,22.1,13.9,91,70,42,30.58,30.36,23,6,23,0.00
2013-11-24,29.2,22.4,17.0,16.1,11.3,6.7,73,62,50,30.73,30.56,19,3,19,0.00
2013-11-25,39.3,29.7,19.9,29.4,17.0,11.6,91,60,42,30.57,30.22,20,4,20,0.00
2013-11-26,34.2,32.3,31.1,32.2,30.0,27.2,95,91,82,30.24,29.94,12,2,12,0.07
2013-11-27,32.4,26.9,21.2,28.5,20.3,13.1,91,76,67,30.33,29.94,22,6,22,0.01
2013-11-28,33.7,26.0,18.5,19.1,15.4,11.4,78,64,50,30.48,30.33,18,3,18,0.00
2013-11-29,41.3,31.3,22.7,25.0,21.0,17.4,86,66,50,30.66,30.48,6,2,11,0.04
2013-11-30,50.5,38.3,27.6,30.6,26.5,21.8,81,64,44,30.54,30.20,15,3,15,0.00
2013-12-1,51.8,45.8,40.5,37.8,32.9,27.1,69,61,55,30.20,29.97,15,4,15,0.00
2013-12-2,50.3,45.1,39.1,39.5,37.1,34.3,84,73,64,29.96,29.78,8,1,8,0.00
2013-12-3,52.0,45.5,36.5,45.9,41.9,34.6,94,87,78,29.88,29.80,11,1,11,0.00
2013-12-4,61.8,54.1,47.0,57.1,51.4,44.7,96,91,82,29.87,29.72,18,4,18,0.00
2013-12-5,64.8,48.5,31.7,60.7,45.0,28.8,97,88,79,30.16,29.76,19,5,19,0.80
2013-12-6,31.8,28.6,26.3,29.5,26.9,24.6,95,93,89,30.41,30.12,13,3,13,0.07
2013-12-7,30.5,24.1,19.4,24.7,20.2,16.3,93,85,73,30.63,30.40,10,2,10,0.01
2013-12-8,32.3,24.8,19.8,31.5,22.5,16.3,97,91,84,30.55,30.05,11,3,12,0.00
2013-12-9,32.4,28.7,24.5,31.5,26.5,20.3,97,91,85,30.26,30.04,16,3,16,0.00
2013-12-10,28.0,23.0,19.5,20.6,18.3,15.4,92,82,70,30.40,30.18,18,4,18,0.00
2013-12-11,34.6,24.6,17.3,25.3,18.7,12.2,92,78,64,30.54,30.33,18,5,18,0.00
2013-12-12,23.8,17.8,8.9,12.2,8.4,2.9,85,67,45,30.60,30.39,13,3,13,0.00
2013-12-13,38.8,29.7,20.8,30.1,18.4,12.0,89,63,48,30.40,30.17,13,4,13,0.04
2013-12-14,39.1,35.2,32.1,38.2,33.5,29.9,97,93,84,30.18,29.72,18,4,18,0.45
2013-12-15,32.1,28.3,26.5,30.2,23.9,21.2,93,84,72,30.16,29.90,16,6,17,0.00
2013-12-16,35.4,31.5,27.1,32.5,28.7,22.7,94,89,83,30.16,30.02,9,2,9,0.03
2013-12-17,36.3,31.2,28.5,33.2,27.3,24.5,91,85,78,30.20,30.00,14,4,18,0.01
2013-12-18,37.7,30.8,24.0,25.1,20.4,17.1,90,67,44,30.32,30.09,19,5,19,0.00
2013-12-19,54.9,46.8,37.1,42.5,31.6,20.8,67,55,50,30.12,29.98,20,7,23,0.00
2013-12-20,59.7,54.5,49.1,56.7,46.8,36.3,92,77,52,29.98,29.83,24,8,24,0.02
2013-12-21,67.1,60.7,56.8,63.0,58.8,55.5,97,93,85,29.83,29.45,26,7,28,1.44
2013-12-22,60.8,51.3,37.8,59.7,47.9,35.1,96,88,76,30.04,29.53,22,6,22,0.16
2013-12-23,37.9,31.3,24.5,35.2,25.6,17.6,92,79,70,30.42,30.04,16,5,16,0.00
2013-12-24,24.9,17.3,13.1,20.5,-0.9,-99.9,89,65,62,30.59,30.40,15,-118,15,0.00
2013-12-25,34.2,26.5,18.0,22.2,15.8,12.0,80,65,44,30.54,30.24,15,3,15,0.00
2013-12-26,41.1,34.4,30.6,26.4,23.5,20.6,80,65,47,30.40,30.23,18,5,18,0.00
2013-12-27,47.6,38.0,30.0,30.7,27.0,23.4,77,65,51,30.44,30.31,10,4,13,0.00
2013-12-28,51.0,42.4,35.3,32.3,29.0,27.0,73,60,47,30.32,30.04,15,4,15,0.00
2013-12-29,42.9,38.5,31.7,39.4,34.7,27.8,96,87,56,30.05,29.82,14,4,17,0.25
2013-12-30,31.7,26.5,22.2,29.6,21.0,16.3,93,79,73,30.27,30.06,11,4,14,0.00
2013-12-31,33.8,27.6,22.2,21.3,17.7,15.0,79,66,53,30.43,30.22,17,5,17,0.00
2014-1-1,45.7,35.3,26.1,29.5,24.9,21.4,84,67,49,30.32,30.02,10,2,11,0.00
2014-1-2,38.4,23.9,10.3,31.9,20.7,6.7,95,88,62,30.31,29.83,17,4,17,0.05